Wabasha, Minnesota
Current Conditions -  °F | °C
As of 3:31 AM on Saturday 29 Nov 2014 (Local Time) from KRGK Reporting Station
Clear Clear  
Wind Chill: 19°   Ceiling: Unl
Heat Index: 27°   Visibility: 7mi
Dew Point: 23°   Wind: 7mph
Humidity: 86%   Direction: 130°SE
Pressure: 29.6"   Gusts: NA
Location:  44.38°N, 92.04°W
Report Text: KRGK 290931Z AUTO 13006KT 7SM CLR M03/M05 A2960 RMK AO2
Loading
Personal Weather Stations






























Interactive Weather Map New forecast layout! Learn more

10-Day Weather Forecast

Advertisements
Track Severe Weather on mobile